Hurricane Symbol View the latest observations near East Pacific Tropical Storm Bud.

Station DPXA2 - Dutch Harbor Pilot Station, AK Image indicating link to RSS feed of recent meteorological observations for station DPXA2


Conditions at DPXA2 as of
(5:14 am AKDT)
1314 GMT on 07/25/2024:
     

Click on the graph icon in the table below to see a time series plot of the last five days of that observation.

5-day plot - Wind Speed Wind Speed (WSPD): 0 kts
5-day plot - Wind Gust Wind Gust (GST): 2 kts
5-day plot - Air Temperature Air Temperature (ATMP): 52.0 °F
5-day plot - Dew Point Dew Point (DEWP): 50.4 °F
5-day plot - Wind Speed at 10 Meters Wind Speed at 10 meters (WSPD10M): 2 kts
5-day plot - Wind Speed at 20 Meters Wind Speed at 20 meters (WSPD20M): 2 kts
5-day plot -  Wind Speed, Wind Gust and Atmospheric Pressure Combined plot of Wind Speed, Gust, and Air Pressure
Previous observations
TIME
(AKDT)
5-day plot - Wind Direction
WDIR
 
5-day plot - Wind Speed
WSPD
kts
5-day plot - Wind Gust
GST
kts
5-day plot - Wave Height
WVHT
ft
5-day plot - Dominant Wave Period
DPD
sec
5-day plot - Average Wave Period
APD
sec
5-day plot - Mean Wave Direction
MWD
 
5-day plot - Atmospheric Pressure
PRES
in
5-day plot - Pressure Tendency
PTDY
in
5-day plot - Air Temperature
ATMP
°F
5-day plot - Water Temperature
WTMP
°F
5-day plot - Dew Point
DEWP
°F
5-day plot - Salinity
SAL
psu
5-day plot - Visibility
VIS
nmi
5-day plot - Tide (above MLLW)
TIDE
ft
2024-07-25 05:04 am- 0 1------ 52.0- 50.4---
2024-07-25 04:54 am W 1 2------ 52.0- 50.4---
2024-07-25 04:44 am W 1 2------ 52.2- 50.2---
2024-07-25 04:34 am W 1 2------ 52.0- 50.0---
2024-07-25 04:24 am NW 1 2------ 51.8- 49.8---
2024-07-25 04:14 am W 2 3------ 51.8- 49.8---
2024-07-25 04:04 am W 2 3------ 51.8- 49.8---
2024-07-25 03:54 amWNW 2 3------ 51.8- 49.8---
2024-07-25 03:44 amWNW 1 3------ 51.8- 49.8---
2024-07-25 03:34 am NW 1 3------ 51.6- 49.6---
2024-07-25 03:24 am W 2 3------ 51.6- 49.6---
2024-07-25 03:14 am W 2 4------ 51.6- 49.6---
2024-07-25 03:04 amWNW 1 4------ 51.4- 49.6---
2024-07-25 02:54 am W 3 4------ 51.3- 49.3---
2024-07-25 02:44 am W 3 5------ 51.3- 49.3---
2024-07-25 02:35 am W 3 5------ 51.4- 49.5---
2024-07-25 02:24 am W 3 5------ 51.6- 49.5---
2024-07-25 02:14 am W 3 5------ 51.8- 49.5---
2024-07-25 02:04 am S 3 4------ 52.2- 49.8---
2024-07-25 01:54 am S 2 3------ 52.2- 49.8---
2024-07-25 01:44 amSSW 2 4------ 52.5- 50.0---
2024-07-25 01:34 am SE 2 4------ 52.5- 50.0---
2024-07-25 01:24 am E 1 4------ 52.3- 49.8---
2024-07-25 01:14 amENE 2 4------ 52.3- 49.8---
2024-07-25 01:04 am NE 2 5------ 52.3- 49.8---
2024-07-25 12:54 am NE 3 6------ 52.2- 49.6---
2024-07-25 12:44 am NE 3 6------ 52.2- 49.6---
2024-07-25 12:34 am NE 3 6------ 52.3- 49.8---
2024-07-25 12:24 am NE 4 7------ 52.5- 50.0---
2024-07-25 12:15 amNNE 3 7------ 52.5- 50.0---
2024-07-25 12:04 amNNE 4 8------ 52.5- 50.0---
2024-07-24 11:54 pmNNE 4 9------ 52.5- 49.6---
2024-07-24 11:44 pmNNE 5 9------ 52.7- 49.8---
2024-07-24 11:34 pmNNE 5 9------ 52.9- 50.0---
2024-07-24 11:24 pmNNE 6 10------ 53.1- 49.8---
2024-07-24 11:14 pm N 6 12------ 53.2- 50.0---
2024-07-24 11:04 pm N 6 12------ 54.0- 50.5---
2024-07-24 10:54 pm SE 4 10------ 54.1- 50.5---
2024-07-24 10:44 pmSSW 3 5------ 54.3- 50.5---
2024-07-24 10:34 pmSSW 3 7------ 54.5- 50.7---
2024-07-24 10:24 pm W 2 5------ 54.5- 50.7---
2024-07-24 10:14 pmWNW 4 7------ 54.5- 50.7---
2024-07-24 10:04 pmWNW 4 9------ 54.1- 50.5---
2024-07-24 09:54 pm W 3 6------ 54.7- 50.5---
2024-07-24 09:44 pm S 4 9------ 55.4- 50.7---
2024-07-24 09:34 pmESE 8 12------ 56.1- 51.3---
2024-07-24 09:24 pmESE 7 12------ 56.3- 51.3---
2024-07-24 09:14 pmESE 6 11------ 56.5- 51.4---
2024-07-24 09:04 pmESE 10 15------ 56.3- 51.3---
2024-07-24 08:54 pmESE 11 15------ 56.3- 51.3---
2024-07-24 08:45 pmESE 12 17------ 56.7- 51.6---
2024-07-24 08:35 pmESE 12 17------ 57.0- 51.6---
2024-07-24 08:25 pmESE 11 16------ 57.4- 51.8---
2024-07-24 08:14 pmESE 10 15------ 57.4- 51.8---
2024-07-24 08:04 pmESE 9 14------ 57.6- 52.2---
2024-07-24 07:54 pmESE 10 16------ 57.7- 52.2---
2024-07-24 07:44 pmESE 8 14------ 58.5- 52.3---
2024-07-24 07:34 pmESE 9 13------ 58.5- 52.5---
2024-07-24 07:24 pmESE 10 14------ 58.5- 52.5---
2024-07-24 07:14 pmESE 9 15------ 58.6- 52.5---
2024-07-24 07:04 pmESE 9 15------ 58.6- 52.7---
2024-07-24 06:54 pmESE 9 15------ 58.3- 52.5---
2024-07-24 06:44 pmESE 9 15------ 58.3- 52.3---
2024-07-24 06:34 pmESE 9 15------ 58.5- 52.3---
2024-07-24 06:24 pmESE 10 14------ 58.6- 52.5---
2024-07-24 06:14 pmESE 10 14------ 58.8- 52.7---
2024-07-24 06:04 pmESE 11 15------ 58.5- 52.5---
2024-07-24 05:54 pmESE 12 16------ 57.7- 52.2---
2024-07-24 05:44 pmESE 11 16------ 57.4- 52.0---
2024-07-24 05:34 pmESE 10 17------ 57.4- 52.2---
2024-07-24 05:24 pmESE 11 16------ 57.0- 52.0---
2024-07-24 05:14 pmESE 11 16------ 57.4- 52.2---
2024-07-24 05:04 pmESE 9 14------ 57.9- 52.5---
2024-07-24 04:54 pmESE 8 13------ 58.1- 52.3---
2024-07-24 04:44 pmESE 9 16------ 58.1- 52.5---
2024-07-24 04:34 pmESE 10 15------ 58.1- 52.3---
2024-07-24 04:24 pmESE 10 16------ 57.9- 52.5---
2024-07-24 04:14 pmESE 11 15------ 57.2- 52.2---
2024-07-24 03:54 pmESE 11 16------ 57.0- 52.2---
2024-07-24 03:44 pmESE 11 17------ 57.4- 52.2---
2024-07-24 03:34 pmESE 8 13------ 56.8- 51.8---
2024-07-24 03:24 pmESE 10 16------ 56.3- 51.8---
2024-07-24 03:14 pmESE 11 16------ 55.8- 51.6---
2024-07-24 03:04 pmESE 13 17------ 55.4- 51.4---
2024-07-24 02:54 pmESE 10 14------ 55.6- 52.0---
2024-07-24 02:44 pmESE 12 16------ 55.2- 51.4---
2024-07-24 02:34 pmESE 13 18------ 55.0- 51.3---
2024-07-24 02:24 pmESE 11 16------ 55.2- 51.4---
2024-07-24 02:15 pmESE 10 14------ 56.5- 51.8---
2024-07-24 02:04 pmESE 9 14------ 57.6- 52.3---
2024-07-24 01:54 pmESE 8 14------ 58.1- 52.7---
2024-07-24 01:44 pmESE 5 13------ 57.6- 52.7---
2024-07-24 01:34 pmNNE 6 10------ 56.3- 51.8---
2024-07-24 01:24 pmNNE 4 9------ 56.5- 51.8---
2024-07-24 01:14 pm E 5 11------ 56.3- 52.0---
2024-07-24 01:04 pmESE 6 9------ 55.4- 51.8---
2024-07-24 12:54 pm SE 5 9------ 54.9- 51.6---
2024-07-24 10:54 amESE 6 9------ 52.2- 50.5---
2024-07-24 10:44 amESE 6 9------ 52.0- 50.5---
2024-07-24 10:34 am SE 7 10------ 52.0- 50.5---
2024-07-24 10:24 am SE 6 10------ 51.6- 50.2---
2024-07-24 10:14 amESE 6 11------ 51.4- 50.4---
2024-07-24 10:04 am SE 8 11------ 51.4- 50.4---
2024-07-24 09:54 am SE 6 10------ 51.3- 50.2---
2024-07-24 09:44 am SE 8 11------ 51.1- 50.0---
2024-07-24 09:34 am SE 9 13------ 51.1- 50.0---
2024-07-24 09:24 am SE 7 12------ 51.3- 50.2---
2024-07-24 09:14 am SE 6 12------ 51.3- 50.2---
2024-07-24 09:04 am SE 7 10------ 51.1- 50.0---
2024-07-24 08:54 am SE 7 11------ 50.9- 49.8---
2024-07-24 08:45 am SE 7 12------ 50.9- 49.8---
2024-07-24 08:34 am SE 7 11------ 51.1- 49.8---
2024-07-24 08:24 am SE 7 10------ 51.1- 49.6---
2024-07-24 08:14 am SE 6 10------ 51.1- 49.6---
2024-07-24 08:04 am SE 7 11------ 51.3- 49.8---
2024-07-24 07:54 am SE 7 11------ 51.3- 49.8---
2024-07-24 07:44 am SE 7 10------ 51.3- 49.8---
2024-07-24 07:34 am SE 7 10------ 51.3- 49.8---
2024-07-24 07:24 am SE 7 9------ 51.4- 50.0---
2024-07-24 07:14 am SE 6 9------ 51.4- 50.0---
2024-07-24 07:04 am SE 7 10------ 51.3- 49.8---
2024-07-24 06:54 am SE 7 10------ 51.4- 50.0---
2024-07-24 06:44 am SE 6 10------ 51.4- 50.0---
2024-07-24 06:34 am SE 5 8------ 51.4- 50.0---
2024-07-24 06:24 am SE 5 8------ 51.4- 50.0---
2024-07-24 06:14 am SE 7 10------ 51.3- 50.2---
2024-07-24 06:04 am SE 7 11------ 51.3- 50.2---
2024-07-24 05:54 am SE 8 11------ 51.3- 50.2---
2024-07-24 05:44 am SE 7 10------ 51.3- 50.2---
2024-07-24 05:34 am SE 8 11------ 51.3- 50.2---
2024-07-24 05:24 am SE 8 12------ 51.3- 50.0---
2024-07-24 05:14 amESE 9 12------ 51.4- 50.0---
2024-07-24 05:04 amESE 8 11------ 51.4- 50.0---
2024-07-24 04:54 am SE 8 11------ 51.4- 50.0---